Time;durP1;ratioP1;P1;durP2;ratioP2;P2;SDS_P1;SDS_P2;PMS_P1;PMS_P2;Temp;Humidity;BMP_temperature;BMP_pressure;BME280_temperature;BME280_humidity;BME280_pressure;Samples;Min_cycle;Max_cycle;Signal;HPM_P1;HPM_P2
2023/09/04 00:01:31;;;;;;;;;;;;;;;27.03;61.49;100921.81;7397847;19;1763;-50
2023/09/04 00:03:59;;;;;;;;;;;;;;;27.02;61.46;100919.25;7396814;19;1587;-51
2023/09/04 00:06:27;;;;;;;;;;;;;;;27.04;61.27;100911.78;7395483;19;1855;-52
2023/09/04 00:08:59;;;;;;;;;;;;;;;26.97;61.48;100901.66;7396348;19;1814;-52
2023/09/04 00:11:28;;;;;;;;;;;;;;;26.98;61.54;100906.09;7396202;19;1739;-52
2023/09/04 00:13:57;;;;;;;;;;;;;;;27.01;61.30;100901.31;7396816;19;1838;-51
2023/09/04 00:16:25;;;;;;;;;;;;;;;27.01;61.41;100895.88;7396542;19;1567;-51
2023/09/04 00:18:53;;;;;;;;;;;;;;;27.02;61.34;100898.41;7395889;19;1755;-51
2023/09/04 00:21:21;;;;;;;;;;;;;;;27.02;61.26;100897.56;7395745;19;1655;-50
2023/09/04 00:23:50;;;;;;;;;;;;;;;27.03;61.35;100899.25;7396247;19;1466;-51
2023/09/04 00:26:21;;;;;;;;;;;;;;;27.01;61.41;100888.56;7396636;19;1842;-52
2023/09/04 00:28:50;;;;;;;;;;;;;;;27.04;61.44;100895.50;7395296;19;1735;-50
2023/09/04 00:31:18;;;;;;;;;;;;;;;27.04;61.52;100884.63;7396419;19;1814;-51
2023/09/04 00:33:46;;;;;;;;;;;;;;;27.01;61.22;100876.88;7403076;19;1767;-51
2023/09/04 00:36:14;;;;;;;;;;;;;;;26.97;61.20;100874.53;7403340;19;1339;-51
2023/09/04 00:38:43;;;;;;;;;;;;;;;26.98;61.41;100865.38;7403563;19;1739;-51
2023/09/04 00:41:11;;;;;;;;;;;;;;;26.97;61.36;100874.53;7403793;19;1727;-51
2023/09/04 00:43:42;;;;;;;;;;;;;;;26.94;61.52;100864.06;7403571;19;1794;-51
2023/09/04 00:46:10;;;;;;;;;;;;;;;26.99;61.36;100872.47;7402955;19;1937;-51
2023/09/04 00:48:39;;;;;;;;;;;;;;;27.02;61.41;100870.41;7400540;19;1876;-52
2023/09/04 00:51:08;;;;;;;;;;;;;;;27.01;61.49;100860.59;7402379;19;1739;-52
2023/09/04 00:53:36;;;;;;;;;;;;;;;26.95;61.64;100865.72;7402864;19;1707;-53
2023/09/04 00:56:05;;;;;;;;;;;;;;;26.95;61.57;100859.47;7402991;19;1739;-52
2023/09/04 00:58:33;;;;;;;;;;;;;;;26.99;61.39;100850.75;7402901;19;1885;-54
2023/09/04 01:01:05;;;;;;;;;;;;;;;26.95;61.54;100849.44;7403520;19;1752;-51
2023/09/04 01:03:33;;;;;;;;;;;;;;;27.00;61.39;100851.63;7402024;19;1398;-50
2023/09/04 01:06:02;;;;;;;;;;;;;;;26.98;61.37;100838.22;7403937;19;1830;-52
2023/09/04 01:08:30;;;;;;;;;;;;;;;26.91;61.59;100841.88;7401074;19;1842;-50
2023/09/04 01:11:03;;;;;;;;;;;;;;;26.94;61.64;100841.53;7402543;19;1596;-50
2023/09/04 01:13:34;;;;;;;;;;;;;;;27.01;61.40;100836.16;7403107;19;1711;-50
2023/09/04 01:16:06;;;;;;;;;;;;;;;27.00;61.34;100832.63;7402514;19;1409;-50
2023/09/04 01:18:34;;;;;;;;;;;;;;;26.98;61.35;100832.81;7402311;19;1425;-50
2023/09/04 01:21:06;;;;;;;;;;;;;;;27.03;61.27;100828.69;7401048;19;1375;-51
2023/09/04 01:23:34;;;;;;;;;;;;;;;27.00;61.46;100835.34;7402810;19;1687;-50
2023/09/04 01:26:09;;;;;;;;;;;;;;;26.95;61.33;100833.16;7402900;19;1414;-51
2023/09/04 01:28:42;;;;;;;;;;;;;;;26.98;61.42;100832.81;7400388;19;1857;-50
2023/09/04 01:31:15;;;;;;;;;;;;;;;26.97;61.28;100833.81;7402151;19;1810;-50
2023/09/04 01:33:45;;;;;;;;;;;;;;;26.95;61.36;100827.75;7402054;19;1862;-52
2023/09/04 01:36:19;;;;;;;;;;;;;;;26.93;61.40;100821.66;7399957;19;1970;-51
2023/09/04 01:38:45;;;;;;;;;;;;;;;26.96;61.31;100817.75;7402004;19;1817;-51
2023/09/04 01:41:14;;;;;;;;;;;;;;;26.96;61.45;100818.59;7401240;19;1666;-51
2023/09/04 01:43:45;;;;;;;;;;;;;;;27.00;61.51;100816.34;7400961;19;1837;-51
2023/09/04 01:46:13;;;;;;;;;;;;;;;26.94;61.52;100800.81;7401164;19;1443;-51
2023/09/04 01:48:39;;;;;;;;;;;;;;;26.97;61.49;100820.25;7399376;19;1841;-50
2023/09/04 01:51:07;;;;;;;;;;;;;;;26.97;61.45;100816.69;7401639;19;1817;-51
2023/09/04 01:53:40;;;;;;;;;;;;;;;26.97;61.41;100822.97;7401658;19;1869;-50
2023/09/04 01:56:08;;;;;;;;;;;;;;;26.97;61.16;100825.69;7401024;19;1863;-51
2023/09/04 01:58:36;;;;;;;;;;;;;;;26.94;61.53;100820.63;7399821;19;1881;-51
2023/09/04 02:01:05;;;;;;;;;;;;;;;26.93;61.56;100818.94;7400911;19;1731;-50
2023/09/04 02:03:33;;;;;;;;;;;;;;;26.98;61.49;100821.94;7399719;19;1831;-50
2023/09/04 02:06:01;;;;;;;;;;;;;;;26.94;61.45;100820.63;7402208;19;1803;-51
2023/09/04 02:08:30;;;;;;;;;;;;;;;26.92;61.42;100817.28;7399348;19;1841;-51
2023/09/04 02:11:01;;;;;;;;;;;;;;;26.93;61.62;100810.81;7399875;19;1616;-50
2023/09/04 02:13:29;;;;;;;;;;;;;;;26.93;61.42;100810.81;7400915;19;1817;-50
2023/09/04 02:15:57;;;;;;;;;;;;;;;26.95;61.19;100822.31;7400224;19;1684;-51
2023/09/04 02:18:27;;;;;;;;;;;;;;;26.97;61.52;100827.56;7399432;19;1511;-50
2023/09/04 02:20:55;;;;;;;;;;;;;;;26.91;61.59;100803.88;7400527;19;1386;-51
2023/09/04 02:23:24;;;;;;;;;;;;;;;26.91;61.45;100821.00;7400807;19;1816;-50
2023/09/04 02:25:52;;;;;;;;;;;;;;;26.95;61.51;100818.75;7401093;19;1759;-51
2023/09/04 02:28:23;;;;;;;;;;;;;;;26.94;61.66;100817.94;7396829;19;1833;-50
2023/09/04 02:30:52;;;;;;;;;;;;;;;26.92;61.41;100817.28;7400850;19;1660;-50
2023/09/04 02:33:20;;;;;;;;;;;;;;;26.94;61.50;100817.09;7399425;19;1804;-50
2023/09/04 02:35:49;;;;;;;;;;;;;;;26.91;61.56;100820.16;7399517;19;1668;-50
2023/09/04 02:38:18;;;;;;;;;;;;;;;26.92;61.34;100816.44;7399960;19;1858;-51
2023/09/04 02:40:47;;;;;;;;;;;;;;;26.90;61.46;100815.75;7399752;19;1672;-53
2023/09/04 02:43:15;;;;;;;;;;;;;;;26.88;61.74;100818.69;7398359;19;1544;-51
2023/09/04 02:45:47;;;;;;;;;;;;;;;26.91;61.49;100820.16;7400464;19;1723;-52
2023/09/04 02:48:15;;;;;;;;;;;;;;;26.90;61.73;100815.75;7398566;19;1876;-50
2023/09/04 02:50:44;;;;;;;;;;;;;;;26.88;61.35;100804.25;7399239;19;1956;-50
2023/09/04 02:53:12;;;;;;;;;;;;;;;26.87;61.51;100805.28;7398360;19;1715;-50
2023/09/04 02:55:40;;;;;;;;;;;;;;;26.86;61.75;100798.16;7397780;19;1838;-50
2023/09/04 02:58:09;;;;;;;;;;;;;;;26.88;61.48;100799.69;7398925;19;1775;-51
2023/09/04 03:00:38;;;;;;;;;;;;;;;26.89;61.53;100814.09;7398035;19;1707;-51
2023/09/04 03:03:09;;;;;;;;;;;;;;;26.91;61.60;100821.00;7395955;19;1469;-51
2023/09/04 03:05:37;;;;;;;;;;;;;;;26.91;61.35;100814.75;7398667;19;1552;-51
2023/09/04 03:08:06;;;;;;;;;;;;;;;26.87;61.51;100810.72;7396707;19;1837;-51
2023/09/04 03:10:34;;;;;;;;;;;;;;;26.87;61.48;100806.13;7398310;19;1434;-51
2023/09/04 03:13:02;;;;;;;;;;;;;;;26.92;61.45;100808.31;7397526;19;1612;-51
2023/09/04 03:15:31;;;;;;;;;;;;;;;26.91;61.36;100810.16;7398575;19;1623;-51
2023/09/04 03:17:59;;;;;;;;;;;;;;;26.88;61.49;100799.69;7396050;19;1362;-51
2023/09/04 03:20:30;;;;;;;;;;;;;;;26.91;61.45;100815.56;7396673;19;1553;-50
2023/09/04 03:22:58;;;;;;;;;;;;;;;26.89;61.34;100812.22;7398922;19;1715;-51
2023/09/04 03:25:26;;;;;;;;;;;;;;;26.84;61.29;100798.38;7397839;19;1743;-51
2023/09/04 03:27:55;;;;;;;;;;;;;;;26.86;61.65;100807.16;7397590;19;1817;-52
2023/09/04 03:30:23;;;;;;;;;;;;;;;26.90;61.54;100804.91;7398667;19;1474;-52
2023/09/04 03:32:51;;;;;;;;;;;;;;;26.91;61.29;100815.56;7396825;19;1739;-52
2023/09/04 03:35:20;;;;;;;;;;;;;;;26.88;61.46;100813.25;7398300;19;1854;-50
2023/09/04 03:37:50;;;;;;;;;;;;;;;26.86;61.75;100800.88;7397990;19;1726;-50
2023/09/04 03:40:19;;;;;;;;;;;;;;;26.88;61.57;100813.25;7397496;19;1911;-50
2023/09/04 03:42:47;;;;;;;;;;;;;;;26.90;61.22;100808.47;7395934;19;1860;-50
2023/09/04 03:45:16;;;;;;;;;;;;;;;26.90;61.35;100811.19;7395877;19;1529;-51
2023/09/04 03:47:44;;;;;;;;;;;;;;;26.91;61.46;100806.59;7395133;19;1839;-50
2023/09/04 03:50:13;;;;;;;;;;;;;;;26.89;61.35;100801.34;7396693;19;1803;-52
2023/09/04 03:52:42;;;;;;;;;;;;;;;26.76;61.21;100806.59;7395804;19;1401;-52
2023/09/04 03:55:14;;;;;;;;;;;;;;;26.72;60.78;100800.72;7397114;19;1801;-51
2023/09/04 03:57:46;;;;;;;;;;;;;;;26.74;60.65;100811.34;7394564;19;1610;-50
2023/09/04 04:00:17;;;;;;;;;;;;;;;26.75;60.59;100804.91;7394322;19;1681;-52
2023/09/04 04:02:45;;;;;;;;;;;;;;;26.83;61.15;100818.38;7393918;19;1956;-51
2023/09/04 04:05:14;;;;;;;;;;;;;;;26.82;61.52;100816.72;7396231;19;1719;-51
2023/09/04 04:07:42;;;;;;;;;;;;;;;26.81;61.54;100814.19;7394901;19;1841;-50
2023/09/04 04:10:14;;;;;;;;;;;;;;;26.83;61.48;100806.69;7396885;19;1817;-51
2023/09/04 04:12:42;;;;;;;;;;;;;;;26.86;61.52;100807.16;7397329;19;1805;-50
2023/09/04 04:15:11;;;;;;;;;;;;;;;26.88;61.31;100806.97;7397124;19;1656;-50
2023/09/04 04:17:40;;;;;;;;;;;;;;;26.83;61.23;100812.97;7396643;19;1814;-50
2023/09/04 04:20:11;;;;;;;;;;;;;;;26.84;61.29;100803.81;7397301;19;1506;-52
2023/09/04 04:22:39;;;;;;;;;;;;;;;26.88;61.28;100804.25;7396928;19;1501;-50
2023/09/04 04:25:08;;;;;;;;;;;;;;;26.81;61.47;100787.88;7395951;19;1621;-51
2023/09/04 04:27:39;;;;;;;;;;;;;;;26.79;61.60;100785.34;7395406;19;1844;-51
2023/09/04 04:30:08;;;;;;;;;;;;;;;26.82;61.29;100799.56;7396417;19;1407;-51
2023/09/04 04:32:37;;;;;;;;;;;;;;;26.82;61.51;100803.16;7396175;19;1463;-51
2023/09/04 04:35:05;;;;;;;;;;;;;;;26.89;61.33;100803.22;7397447;19;1138;-50
2023/09/04 04:37:33;;;;;;;;;;;;;;;26.79;61.54;100793.50;7396275;19;1406;-51
2023/09/04 04:40:03;;;;;;;;;;;;;;;26.82;61.64;100800.44;7396106;19;1426;-50
2023/09/04 04:42:31;;;;;;;;;;;;;;;26.78;61.29;100802.66;7395883;19;1637;-50
2023/09/04 04:45:03;;;;;;;;;;;;;;;26.82;61.47;100803.16;7395127;19;1593;-52
2023/09/04 04:47:31;;;;;;;;;;;;;;;26.77;61.32;100800.13;7396934;19;1639;-52
2023/09/04 04:50:00;;;;;;;;;;;;;;;26.78;61.49;100804.56;7393830;19;1857;-52
2023/09/04 04:52:28;;;;;;;;;;;;;;;26.81;61.33;100798.72;7395713;19;1616;-51
2023/09/04 04:54:56;;;;;;;;;;;;;;;26.79;61.58;100789.94;7395515;19;1683;-52
2023/09/04 04:57:24;;;;;;;;;;;;;;;26.83;61.38;100809.41;7395382;19;1613;-51
2023/09/04 04:59:53;;;;;;;;;;;;;;;26.81;61.33;100823.16;7395477;19;1493;-50
2023/09/04 05:02:24;;;;;;;;;;;;;;;26.78;61.42;100810.81;7393275;19;1727;-50
2023/09/04 05:04:52;;;;;;;;;;;;;;;26.79;61.54;100819.78;7391317;19;1719;-50
2023/09/04 05:07:21;;;;;;;;;;;;;;;26.80;61.43;100818.78;7395702;19;1818;-50
2023/09/04 05:09:54;;;;;;;;;;;;;;;26.84;61.50;100836.38;7393840;19;1857;-50
2023/09/04 05:12:22;;;;;;;;;;;;;;;26.79;61.55;100822.50;7395113;19;1978;-51
2023/09/04 05:14:50;;;;;;;;;;;;;;;26.82;61.30;100833.00;7395675;19;1678;-50
2023/09/04 05:17:19;;;;;;;;;;;;;;;26.81;61.24;100835.88;7396533;19;1873;-51
2023/09/04 05:19:49;;;;;;;;;;;;;;;26.81;61.49;100847.56;7402623;19;1828;-50
2023/09/04 05:22:18;;;;;;;;;;;;;;;26.85;61.20;100829.88;7401420;19;1474;-50
2023/09/04 05:24:46;;;;;;;;;;;;;;;26.77;61.62;100835.41;7399694;19;1832;-51
2023/09/04 05:27:14;;;;;;;;;;;;;;;26.77;61.73;100840.84;7398771;19;1378;-51
2023/09/04 05:29:43;;;;;;;;;;;;;;;26.76;61.58;100837.28;7396474;19;1839;-50
2023/09/04 05:32:11;;;;;;;;;;;;;;;26.81;61.61;100833.16;7397856;19;1902;-50
2023/09/04 05:34:40;;;;;;;;;;;;;;;26.80;61.31;100840.47;7398096;19;1850;-51
2023/09/04 05:37:11;;;;;;;;;;;;;;;26.78;61.51;100839.81;7398569;19;1723;-50
2023/09/04 05:39:39;;;;;;;;;;;;;;;26.79;61.43;100842.31;7401879;19;1739;-50
2023/09/04 05:42:08;;;;;;;;;;;;;;;26.61;61.95;100843.72;7400119;19;1701;-50
2023/09/04 05:44:36;;;;;;;;;;;;;;;26.62;61.16;100837.25;7400854;19;1763;-51
2023/09/04 05:47:05;;;;;;;;;;;;;;;26.72;61.36;100848.66;7398337;19;1838;-51
2023/09/04 05:49:33;;;;;;;;;;;;;;;26.81;61.28;100852.16;7398542;19;1849;-51
2023/09/04 05:52:01;;;;;;;;;;;;;;;26.74;61.41;100847.47;7399309;19;1746;-50
2023/09/04 05:54:32;;;;;;;;;;;;;;;26.76;61.50;100850.00;7398337;19;1712;-50
2023/09/04 05:57:00;;;;;;;;;;;;;;;26.75;61.58;100842.88;7398569;19;1830;-51
2023/09/04 05:59:29;;;;;;;;;;;;;;;26.74;61.45;100841.19;7399636;19;1805;-51
2023/09/04 06:01:57;;;;;;;;;;;;;;;26.72;61.67;100843.25;7400928;19;1829;-50
2023/09/04 06:04:25;;;;;;;;;;;;;;;26.75;61.44;100848.31;7401418;19;1806;-50
2023/09/04 06:06:54;;;;;;;;;;;;;;;26.76;61.48;100850.00;7402292;19;1775;-50
2023/09/04 06:09:22;;;;;;;;;;;;;;;26.74;61.36;100854.75;7400960;19;1835;-50
2023/09/04 06:11:53;;;;;;;;;;;;;;;26.81;61.48;100857.59;7401248;19;1939;-51
2023/09/04 06:14:22;;;;;;;;;;;;;;;26.81;61.47;100866.56;7400716;19;1521;-51
2023/09/04 06:16:50;;;;;;;;;;;;;;;26.77;61.39;100867.97;7397379;19;1497;-51
2023/09/04 06:19:18;;;;;;;;;;;;;;;26.82;61.27;100867.41;7399485;19;1486;-51
2023/09/04 06:21:47;;;;;;;;;;;;;;;26.79;61.26;100857.78;7400265;19;1826;-50
2023/09/04 06:24:15;;;;;;;;;;;;;;;26.78;61.16;100880.50;7400376;19;1719;-50
2023/09/04 06:26:43;;;;;;;;;;;;;;;26.78;61.41;100872.38;7401088;19;1730;-50
2023/09/04 06:29:14;;;;;;;;;;;;;;;26.82;61.22;100878.25;7396882;19;1867;-50
2023/09/04 06:31:43;;;;;;;;;;;;;;;26.84;61.12;100889.75;7401278;19;1817;-51
2023/09/04 06:34:11;;;;;;;;;;;;;;;26.82;61.30;100880.97;7400978;19;1716;-51
2023/09/04 06:36:39;;;;;;;;;;;;;;;26.82;61.27;100891.81;7399505;19;1826;-51
2023/09/04 06:39:08;;;;;;;;;;;;;;;26.74;61.46;100876.47;7399360;19;1660;-50
2023/09/04 06:41:36;;;;;;;;;;;;;;;26.79;61.28;100884.91;7399486;19;1842;-51
2023/09/04 06:44:05;;;;;;;;;;;;;;;26.79;61.35;100890.31;7399820;19;1838;-51
2023/09/04 06:46:36;;;;;;;;;;;;;;;26.77;61.39;100886.94;7401110;19;1091;-50
2023/09/04 06:49:04;;;;;;;;;;;;;;;26.76;61.37;100877.16;7398960;19;1869;-50
2023/09/04 06:51:34;;;;;;;;;;;;;;;26.77;61.55;100884.25;7400108;19;1525;-51
2023/09/04 06:54:03;;;;;;;;;;;;;;;26.77;61.37;100885.06;7399062;19;1500;-51
2023/09/04 06:56:32;;;;;;;;;;;;;;;26.76;61.39;100879.84;7400460;19;1332;-50
2023/09/04 06:59:00;;;;;;;;;;;;;;;26.83;61.47;100899.78;7399610;19;1885;-51
2023/09/04 07:01:28;;;;;;;;;;;;;;;26.77;61.29;100895.09;7397931;19;1957;-51
2023/09/04 07:03:59;;;;;;;;;;;;;;;26.76;61.18;100888.84;7399916;19;1512;-50
2023/09/04 07:06:28;;;;;;;;;;;;;;;26.77;61.34;100884.25;7399748;19;1695;-51
2023/09/04 07:08:56;;;;;;;;;;;;;;;26.74;61.55;100887.31;7398705;19;1883;-51
2023/09/04 07:11:24;;;;;;;;;;;;;;;26.74;61.58;100884.59;7399124;19;1758;-51
2023/09/04 07:13:53;;;;;;;;;;;;;;;26.73;61.23;100886.47;7398614;19;1434;-51
2023/09/04 07:16:21;;;;;;;;;;;;;;;26.73;61.48;100897.31;7398086;19;1789;-51
2023/09/04 07:18:49;;;;;;;;;;;;;;;26.75;61.07;100887.13;7399430;19;1747;-51
2023/09/04 07:21:20;;;;;;;;;;;;;;;26.75;61.40;100887.13;7398763;19;1470;-51
2023/09/04 07:23:49;;;;;;;;;;;;;;;26.79;60.99;100902.00;7397943;19;1513;-50
2023/09/04 07:26:17;;;;;;;;;;;;;;;26.74;61.18;100896.31;7398816;19;1770;-50
2023/09/04 07:28:45;;;;;;;;;;;;;;;26.75;61.13;100899.88;7398585;19;1841;-50
2023/09/04 07:31:19;;;;;;;;;;;;;;;26.71;61.29;100882.28;7398803;19;1822;-51
2023/09/04 07:33:48;;;;;;;;;;;;;;;26.76;61.14;100893.44;7397895;19;1889;-50
2023/09/04 07:36:16;;;;;;;;;;;;;;;26.77;61.16;100898.63;7396529;19;1701;-52
2023/09/04 07:38:48;;;;;;;;;;;;;;;26.75;61.21;100886.28;7397767;19;1742;-51
2023/09/04 07:41:16;;;;;;;;;;;;;;;26.77;61.32;100886.94;7398441;19;1826;-51
2023/09/04 07:43:45;;;;;;;;;;;;;;;26.75;61.37;100891.72;7398087;19;1822;-51
2023/09/04 07:46:13;;;;;;;;;;;;;;;26.80;61.23;100881.19;7397548;19;2004;-51
2023/09/04 07:48:41;;;;;;;;;;;;;;;26.78;61.13;100885.94;7398209;19;1485;-51
2023/09/04 07:51:11;;;;;;;;;;;;;;;26.82;60.82;100892.69;7398622;19;1401;-51
2023/09/04 07:53:39;;;;;;;;;;;;;;;26.83;60.90;100893.53;7398436;19;1708;-51
2023/09/04 07:56:10;;;;;;;;;;;;;;;26.88;60.85;100900.09;7397322;19;1932;-51
2023/09/04 07:58:39;;;;;;;;;;;;;;;26.82;61.00;100902.66;7397192;19;1929;-51
2023/09/04 08:01:08;;;;;;;;;;;;;;;26.84;60.87;100901.47;7398142;19;1763;-51
2023/09/04 08:03:36;;;;;;;;;;;;;;;26.87;60.81;100911.94;7397593;19;1680;-51
2023/09/04 08:06:04;;;;;;;;;;;;;;;26.85;61.01;100916.72;7398498;19;1832;-51
2023/09/04 08:08:33;;;;;;;;;;;;;;;26.85;60.93;100911.28;7398723;19;1788;-51
2023/09/04 08:11:01;;;;;;;;;;;;;;;26.77;60.94;100892.38;7395975;19;1874;-50
2023/09/04 08:13:32;;;;;;;;;;;;;;;26.80;60.79;100902.88;7397368;19;1414;-50
2023/09/04 08:16:00;;;;;;;;;;;;;;;26.82;60.87;100900.81;7397470;19;1708;-50
2023/09/04 08:18:28;;;;;;;;;;;;;;;26.79;60.87;100931.03;7396548;19;1768;-51
2023/09/04 08:20:58;;;;;;;;;;;;;;;26.83;60.80;100926.09;7396691;19;1793;-51
2023/09/04 08:23:26;;;;;;;;;;;;;;;26.84;61.05;100919.59;7396008;19;1391;-51
2023/09/04 08:25:59;;;;;;;;;;;;;;;26.81;60.92;100918.13;7398557;19;1038;-51
2023/09/04 08:28:27;;;;;;;;;;;;;;;26.81;60.75;100912.69;7397323;19;1902;-52
2023/09/04 08:30:58;;;;;;;;;;;;;;;26.81;60.84;100915.41;7395083;19;1940;-51
2023/09/04 08:33:27;;;;;;;;;;;;;;;26.83;60.89;100932.34;7395600;19;1909;-52
2023/09/04 08:35:55;;;;;;;;;;;;;;;26.81;60.92;100918.13;7397364;19;1742;-52
2023/09/04 08:38:23;;;;;;;;;;;;;;;26.85;61.01;100929.44;7396183;19;1882;-50
2023/09/04 08:40:51;;;;;;;;;;;;;;;26.84;60.86;100928.63;7394637;19;2577;-51
2023/09/04 08:43:20;;;;;;;;;;;;;;;26.81;60.84;100920.84;7396184;19;1471;-50
2023/09/04 08:45:49;;;;;;;;;;;;;;;26.92;60.82;100925.81;7398180;19;1035;-51
2023/09/04 08:48:22;;;;;;;;;;;;;;;26.82;61.13;100919.81;7396526;19;1668;-52
2023/09/04 08:50:51;;;;;;;;;;;;;;;26.81;60.97;100928.97;7394566;19;1886;-51
2023/09/04 08:53:21;;;;;;;;;;;;;;;26.82;60.91;100910.81;7399908;19;1802;-52
2023/09/04 08:55:49;;;;;;;;;;;;;;;26.81;60.97;100920.84;7403933;19;1811;-52
2023/09/04 08:58:18;;;;;;;;;;;;;;;26.76;61.00;100921.38;7403331;19;1734;-52
2023/09/04 09:00:46;;;;;;;;;;;;;;;26.84;60.79;100935.88;7403179;19;1382;-51
2023/09/04 09:03:15;;;;;;;;;;;;;;;26.79;60.90;100939.16;7402772;19;1717;-50
2023/09/04 09:05:48;;;;;;;;;;;;;;;26.77;60.93;100933.06;7402922;19;1823;-51
2023/09/04 09:08:17;;;;;;;;;;;;;;;26.80;60.91;100930.00;7402790;19;1857;-51
2023/09/04 09:10:46;;;;;;;;;;;;;;;26.82;60.93;100946.94;7401749;19;1846;-51
2023/09/04 09:13:15;;;;;;;;;;;;;;;26.82;60.95;100940.66;7403307;19;1857;-51
2023/09/04 09:15:43;;;;;;;;;;;;;;;26.76;60.94;100937.66;7402899;19;1482;-51
2023/09/04 09:18:12;;;;;;;;;;;;;;;26.82;60.87;100941.53;7402314;19;1430;-51
2023/09/04 09:20:42;;;;;;;;;;;;;;;26.84;60.74;100930.47;7403838;19;1743;-51
2023/09/04 09:23:17;;;;;;;;;;;;;;;26.80;60.92;100943.56;7403824;19;1777;-51
2023/09/04 09:25:56;;;;;;;;;;;;;;;26.78;61.11;100945.63;7403526;19;1815;-52
2023/09/04 09:28:24;;;;;;;;;;;;;;;26.73;60.92;100958.88;7401634;19;1773;-52
2023/09/04 09:30:53;;;;;;;;;;;;;;;26.76;61.19;100943.09;7402510;19;1846;-51
2023/09/04 09:33:22;;;;;;;;;;;;;;;26.73;61.33;100932.59;7401567;19;1803;-51
2023/09/04 09:35:50;;;;;;;;;;;;;;;26.76;61.18;100942.25;7403568;19;1736;-51
2023/09/04 09:38:21;;;;;;;;;;;;;;;26.73;61.12;100935.31;7401506;19;1513;-51
2023/09/04 09:40:49;;;;;;;;;;;;;;;26.80;61.03;100943.56;7401809;19;1478;-51
2023/09/04 09:43:18;;;;;;;;;;;;;;;26.73;60.95;100935.31;7402718;19;1410;-52
2023/09/04 09:45:46;;;;;;;;;;;;;;;26.77;61.13;100930.38;7402593;19;1391;-53
2023/09/04 09:48:15;;;;;;;;;;;;;;;26.83;60.96;100932.34;7401580;19;1878;-51
2023/09/04 09:50:43;;;;;;;;;;;;;;;26.79;60.77;100925.59;7400461;19;1902;-52
2023/09/04 09:53:12;;;;;;;;;;;;;;;26.78;61.12;100922.03;7400719;19;1751;-52
2023/09/04 09:55:42;;;;;;;;;;;;;;;26.78;60.94;100915.78;7400310;19;1834;-51
2023/09/04 09:58:11;;;;;;;;;;;;;;;26.79;60.93;100918.28;7401578;19;1687;-50
2023/09/04 10:00:40;;;;;;;;;;;;;;;26.83;60.77;100926.09;7402343;19;1834;-51
2023/09/04 10:03:09;;;;;;;;;;;;;;;26.76;60.88;100928.69;7400920;19;2323;-51
2023/09/04 10:05:38;;;;;;;;;;;;;;;26.78;60.63;100929.34;7401693;19;1814;-51
2023/09/04 10:08:08;;;;;;;;;;;;;;;26.77;60.75;100933.06;7400601;19;1798;-51
2023/09/04 10:10:39;;;;;;;;;;;;;;;26.71;61.17;100915.66;7399913;19;1854;-51
2023/09/04 10:13:17;;;;;;;;;;;;;;;26.74;61.10;100917.16;7401513;19;1678;-51
2023/09/04 10:15:48;;;;;;;;;;;;;;;26.74;61.06;100937.00;7401654;19;1829;-52
2023/09/04 10:18:21;;;;;;;;;;;;;;;26.71;61.11;100934.66;7401119;19;1722;-52
2023/09/04 10:20:49;;;;;;;;;;;;;;;26.72;60.92;100946.34;7400619;19;1937;-52
2023/09/04 10:23:22;;;;;;;;;;;;;;;26.72;61.20;100935.47;7399969;19;1881;-50
2023/09/04 10:25:54;;;;;;;;;;;;;;;26.74;61.01;100933.44;7399841;19;1969;-50
2023/09/04 10:28:27;;;;;;;;;;;;;;;26.72;60.92;100938.19;7398848;19;1809;-51
2023/09/04 10:30:58;;;;;;;;;;;;;;;26.71;61.10;100939.25;7399953;19;1842;-51
2023/09/04 10:33:26;;;;;;;;;;;;;;;26.71;61.13;100950.09;7399447;19;1958;-51
2023/09/04 10:35:55;;;;;;;;;;;;;;;26.69;61.01;100942.13;7401364;19;1722;-52
2023/09/04 10:38:24;;;;;;;;;;;;;;;26.73;61.01;100948.88;7399926;19;1866;-52
2023/09/04 10:40:52;;;;;;;;;;;;;;;26.75;61.06;100927.00;7400125;19;1572;-50
2023/09/04 10:43:20;;;;;;;;;;;;;;;26.71;60.92;100950.09;7396906;19;1467;-52
2023/09/04 10:46:03;;;;;;;;;;;;;;;26.70;61.10;100941.13;7400448;19;1315;-51
2023/09/04 10:48:47;;;;;;;;;;;;;;;26.68;61.05;100931.44;7400037;19;1720;-51
2023/09/04 10:51:28;;;;;;;;;;;;;;;26.68;60.99;100926.88;7399049;19;1858;-51
2023/09/04 10:53:56;;;;;;;;;;;;;;;26.71;61.08;100933.81;7399306;19;1494;-52
2023/09/04 10:56:25;;;;;;;;;;;;;;;26.72;60.87;100944.50;7400079;19;1748;-51
2023/09/04 10:59:06;;;;;;;;;;;;;;;26.71;61.04;100940.06;7398530;19;1862;-50
2023/09/04 11:01:36;;;;;;;;;;;;;;;26.73;61.02;100945.31;7400619;19;1952;-51
2023/09/04 11:04:08;;;;;;;;;;;;;;;26.69;60.85;100944.00;7400481;19;1724;-50
2023/09/04 11:06:37;;;;;;;;;;;;;;;26.70;61.11;100941.13;7398750;19;1976;-50
2023/09/04 11:09:06;;;;;;;;;;;;;;;26.73;61.07;100948.03;7399095;19;1818;-51
2023/09/04 11:11:35;;;;;;;;;;;;;;;26.71;60.85;100940.06;7397958;19;1841;-51
2023/09/04 11:14:06;;;;;;;;;;;;;;;26.70;61.15;100938.41;7400100;19;1715;-52
2023/09/04 11:16:39;;;;;;;;;;;;;;;26.72;60.82;100949.03;7398148;19;1579;-51
2023/09/04 11:19:12;;;;;;;;;;;;;;;26.72;61.07;100947.19;7398743;19;1493;-51
2023/09/04 11:21:40;;;;;;;;;;;;;;;26.74;60.80;100939.72;7398839;19;1862;-51
2023/09/04 11:24:09;;;;;;;;;;;;;;;26.75;60.72;100937.84;7399062;19;1954;-50
2023/09/04 11:26:38;;;;;;;;;;;;;;;26.76;60.66;100944.97;7399826;19;1671;-52
2023/09/04 11:29:07;;;;;;;;;;;;;;;26.74;60.88;100938.84;7398529;19;1736;-51
2023/09/04 11:31:35;;;;;;;;;;;;;;;26.69;61.04;100942.13;7398140;19;1862;-50
2023/09/04 11:34:04;;;;;;;;;;;;;;;26.76;60.89;100936.84;7399202;19;1755;-52
2023/09/04 11:36:39;;;;;;;;;;;;;;;26.74;60.89;100922.56;7397819;19;1752;-51
2023/09/04 11:39:08;;;;;;;;;;;;;;;26.75;60.98;100930.53;7397542;19;1859;-50
2023/09/04 11:41:37;;;;;;;;;;;;;;;26.73;60.83;100926.34;7398103;19;1697;-51
2023/09/04 11:44:07;;;;;;;;;;;;;;;26.71;60.75;100925.66;7398030;19;1770;-51
2023/09/04 11:46:35;;;;;;;;;;;;;;;26.73;61.03;100926.34;7398599;19;1841;-50
2023/09/04 11:49:04;;;;;;;;;;;;;;;26.72;60.83;100911.06;7398275;19;1864;-51
2023/09/04 11:51:35;;;;;;;;;;;;;;;26.70;60.85;100916.69;7395978;19;1969;-50
2023/09/04 11:54:06;;;;;;;;;;;;;;;26.70;60.87;100918.53;7398002;19;1709;-50
2023/09/04 11:56:34;;;;;;;;;;;;;;;26.72;61.17;100932.78;7398542;19;1661;-51
2023/09/04 11:59:04;;;;;;;;;;;;;;;26.72;60.96;100922.78;7397502;19;1956;-52
2023/09/04 12:16:57;;;;;;;;;;;;;;;26.60;60.99;100910.69;6753891;19;10002244;-50
2023/09/04 12:19:25;;;;;;;;;;;;;;;26.56;60.77;100899.31;7423411;19;1667;-50
2023/09/04 12:21:54;;;;;;;;;;;;;;;26.52;57.71;100898.00;7424506;19;1507;-51
2023/09/04 12:24:22;;;;;;;;;;;;;;;26.39;56.72;100890.47;7423270;19;1849;-50
2023/09/04 12:26:52;;;;;;;;;;;;;;;26.32;56.75;100880.53;7422530;19;1816;-51
2023/09/04 12:29:21;;;;;;;;;;;;;;;25.99;55.57;100886.19;7427643;19;1749;-50
2023/09/04 12:31:50;;;;;;;;;;;;;;;25.87;54.83;100890.31;7427961;19;1796;-60
2023/09/04 12:34:25;;;;;;;;;;;;;;;25.49;55.17;100887.44;7429085;19;1033;-50
2023/09/04 12:36:56;;;;;;;;;;;;;;;25.47;54.58;100886.78;7428321;19;1867;-49
2023/09/04 12:39:25;;;;;;;;;;;;;;;25.32;54.63;100882.06;7429875;19;1734;-49
2023/09/04 12:41:57;;;;;;;;;;;;;;;25.50;54.00;100870.16;7428612;19;1409;-50
2023/09/04 12:44:25;;;;;;;;;;;;;;;25.47;53.69;100875.94;7427704;19;1844;-50
2023/09/04 12:46:53;;;;;;;;;;;;;;;25.25;54.24;100894.63;7427990;19;1417;-50
2023/09/04 12:49:25;;;;;;;;;;;;;;;25.25;54.12;100889.22;7427464;19;1869;-50
2023/09/04 12:51:53;;;;;;;;;;;;;;;24.97;54.89;100886.06;7427097;19;1385;-50
2023/09/04 12:54:21;;;;;;;;;;;;;;;25.01;54.48;100873.88;7432000;19;1743;-49
2023/09/04 12:56:49;;;;;;;;;;;;;;;25.16;54.27;100868.56;7432319;19;1482;-50
2023/09/04 12:59:18;;;;;;;;;;;;;;;25.27;53.45;100870.94;7431956;19;1663;-50
2023/09/04 13:01:46;;;;;;;;;;;;;;;25.10;53.80;100886.34;7431855;19;1720;-39
2023/09/04 13:04:14;;;;;;;;;;;;;;;24.75;54.39;100871.34;7432828;19;1014;-39
2023/09/04 13:06:45;;;;;;;;;;;;;;;24.70;54.33;100857.50;7427256;19;1867;-39
2023/09/04 13:09:13;;;;;;;;;;;;;;;24.85;54.33;100871.16;7431236;19;1329;-39
2023/09/04 13:11:42;;;;;;;;;;;;;;;24.86;54.31;100876.41;7430417;19;1663;-39